Terminal Aerodrome Forecast
Issued by NWS

Home | Current Version | Previous Version | Text Only | Print | Product List | Glossary On
Versions: 1 2 3 4 5 6 7 8 9 10 11 12 13 14 15 16 17
000
FTUS43 KTOP 191738
TAFFOE
TAF
KFOE 191738Z 1918/2018 18010KT P6SM BKN015
      TEMPO 1918/1921 SCT015
     FM200700 16008KT 4SM -SHRA BR VCTS OVC025CB
     FM201100 16009KT 4SM BR VCSH OVC009
     FM201400 18008KT P6SM OVC015=

USA.gov is the U.S. government's official web portal to all federal, state and local government web resources and services.